sensor_id;sensor_type;location;lat;lon;timestamp;P1;durP1;ratioP1;P2;durP2;ratioP2
12220;SDS011;6173;42.024;23.096;2022-08-03T00:01:02;1.63;;;1.00;;
12220;SDS011;6173;42.024;23.096;2022-08-03T00:03:29;1.83;;;1.10;;
12220;SDS011;6173;42.024;23.096;2022-08-03T00:05:56;1.10;;;0.97;;
12220;SDS011;6173;42.024;23.096;2022-08-03T00:08:24;4.47;;;1.30;;
12220;SDS011;6173;42.024;23.096;2022-08-03T00:10:51;0.80;;;0.80;;
12220;SDS011;6173;42.024;23.096;2022-08-03T00:13:17;1.43;;;1.00;;
12220;SDS011;6173;42.024;23.096;2022-08-03T00:15:44;1.00;;;1.00;;
12220;SDS011;6173;42.024;23.096;2022-08-03T00:18:11;1.90;;;1.10;;
12220;SDS011;6173;42.024;23.096;2022-08-03T00:20:38;0.97;;;0.80;;
12220;SDS011;6173;42.024;23.096;2022-08-03T00:23:04;2.20;;;1.00;;
12220;SDS011;6173;42.024;23.096;2022-08-03T00:25:34;1.67;;;1.00;;
12220;SDS011;6173;42.024;23.096;2022-08-03T00:28:01;1.00;;;0.90;;
12220;SDS011;6173;42.024;23.096;2022-08-03T00:30:28;1.03;;;1.00;;
12220;SDS011;6173;42.024;23.096;2022-08-03T00:32:55;1.13;;;1.03;;
12220;SDS011;6173;42.024;23.096;2022-08-03T00:35:22;1.33;;;0.90;;
12220;SDS011;6173;42.024;23.096;2022-08-03T00:37:50;1.10;;;0.90;;
12220;SDS011;6173;42.024;23.096;2022-08-03T00:40:18;1.20;;;0.90;;
12220;SDS011;6173;42.024;23.096;2022-08-03T00:42:47;0.87;;;0.87;;
12220;SDS011;6173;42.024;23.096;2022-08-03T00:45:16;10.50;;;1.10;;
12220;SDS011;6173;42.024;23.096;2022-08-03T00:47:43;1.10;;;1.00;;
12220;SDS011;6173;42.024;23.096;2022-08-03T00:50:10;0.93;;;0.93;;
12220;SDS011;6173;42.024;23.096;2022-08-03T00:52:37;0.83;;;0.83;;
12220;SDS011;6173;42.024;23.096;2022-08-03T00:55:05;1.60;;;1.00;;
12220;SDS011;6173;42.024;23.096;2022-08-03T00:57:32;0.87;;;0.87;;
12220;SDS011;6173;42.024;23.096;2022-08-03T01:00:00;1.00;;;0.90;;
12220;SDS011;6173;42.024;23.096;2022-08-03T01:02:27;2.50;;;1.00;;
12220;SDS011;6173;42.024;23.096;2022-08-03T01:04:54;1.40;;;1.00;;
12220;SDS011;6173;42.024;23.096;2022-08-03T01:07:24;0.97;;;0.97;;
12220;SDS011;6173;42.024;23.096;2022-08-03T01:09:59;1.53;;;0.93;;
12220;SDS011;6173;42.024;23.096;2022-08-03T01:12:31;2.37;;;1.00;;
12220;SDS011;6173;42.024;23.096;2022-08-03T01:15:04;1.20;;;1.07;;
12220;SDS011;6173;42.024;23.096;2022-08-03T01:17:38;1.20;;;1.10;;
12220;SDS011;6173;42.024;23.096;2022-08-03T01:20:09;2.07;;;1.00;;
12220;SDS011;6173;42.024;23.096;2022-08-03T01:22:44;1.37;;;1.03;;
12220;SDS011;6173;42.024;23.096;2022-08-03T01:25:33;3.03;;;1.10;;
12220;SDS011;6173;42.024;23.096;2022-08-03T01:28:24;1.23;;;0.97;;
12220;SDS011;6173;42.024;23.096;2022-08-03T01:31:06;3.83;;;1.00;;
12220;SDS011;6173;42.024;23.096;2022-08-03T01:33:36;1.13;;;0.97;;
12220;SDS011;6173;42.024;23.096;2022-08-03T01:36:06;3.13;;;1.20;;
12220;SDS011;6173;42.024;23.096;2022-08-03T01:38:40;1.07;;;0.80;;
12220;SDS011;6173;42.024;23.096;2022-08-03T01:41:10;1.10;;;1.00;;
12220;SDS011;6173;42.024;23.096;2022-08-03T01:43:39;1.10;;;1.00;;
12220;SDS011;6173;42.024;23.096;2022-08-03T01:46:10;2.87;;;1.07;;
12220;SDS011;6173;42.024;23.096;2022-08-03T01:48:38;1.97;;;1.00;;
12220;SDS011;6173;42.024;23.096;2022-08-03T01:51:08;2.20;;;1.00;;
12220;SDS011;6173;42.024;23.096;2022-08-03T01:53:37;1.40;;;1.30;;
12220;SDS011;6173;42.024;23.096;2022-08-03T01:56:06;1.30;;;1.20;;
12220;SDS011;6173;42.024;23.096;2022-08-03T01:58:35;1.10;;;1.00;;
12220;SDS011;6173;42.024;23.096;2022-08-03T02:01:03;2.10;;;1.07;;
12220;SDS011;6173;42.024;23.096;2022-08-03T02:03:35;1.30;;;1.20;;
12220;SDS011;6173;42.024;23.096;2022-08-03T02:06:03;1.03;;;0.93;;
12220;SDS011;6173;42.024;23.096;2022-08-03T02:08:32;2.97;;;1.20;;
12220;SDS011;6173;42.024;23.096;2022-08-03T02:11:00;1.90;;;1.30;;
12220;SDS011;6173;42.024;23.096;2022-08-03T02:13:28;1.70;;;1.03;;
12220;SDS011;6173;42.024;23.096;2022-08-03T02:15:58;1.50;;;0.90;;
12220;SDS011;6173;42.024;23.096;2022-08-03T02:18:26;1.23;;;1.13;;
12220;SDS011;6173;42.024;23.096;2022-08-03T02:20:57;1.07;;;0.97;;
12220;SDS011;6173;42.024;23.096;2022-08-03T02:23:25;1.97;;;1.43;;
12220;SDS011;6173;42.024;23.096;2022-08-03T02:25:52;1.00;;;0.93;;
12220;SDS011;6173;42.024;23.096;2022-08-03T02:28:25;1.20;;;1.00;;
12220;SDS011;6173;42.024;23.096;2022-08-03T02:30:57;2.73;;;1.50;;
12220;SDS011;6173;42.024;23.096;2022-08-03T02:33:29;1.50;;;1.10;;
12220;SDS011;6173;42.024;23.096;2022-08-03T02:36:01;1.73;;;1.20;;
12220;SDS011;6173;42.024;23.096;2022-08-03T02:38:31;2.73;;;1.20;;
12220;SDS011;6173;42.024;23.096;2022-08-03T02:41:06;3.50;;;1.30;;
12220;SDS011;6173;42.024;23.096;2022-08-03T02:43:37;2.57;;;1.23;;
12220;SDS011;6173;42.024;23.096;2022-08-03T02:46:06;4.20;;;1.40;;
12220;SDS011;6173;42.024;23.096;2022-08-03T02:48:34;3.03;;;1.10;;
12220;SDS011;6173;42.024;23.096;2022-08-03T02:51:05;2.07;;;1.40;;
12220;SDS011;6173;42.024;23.096;2022-08-03T02:53:32;2.70;;;1.10;;
12220;SDS011;6173;42.024;23.096;2022-08-03T02:56:00;3.20;;;1.40;;
12220;SDS011;6173;42.024;23.096;2022-08-03T02:58:29;1.83;;;1.20;;
12220;SDS011;6173;42.024;23.096;2022-08-03T03:00:57;1.83;;;1.57;;
12220;SDS011;6173;42.024;23.096;2022-08-03T03:03:25;1.20;;;1.10;;
12220;SDS011;6173;42.024;23.096;2022-08-03T03:05:53;1.77;;;1.40;;
12220;SDS011;6173;42.024;23.096;2022-08-03T03:08:22;1.30;;;1.20;;
12220;SDS011;6173;42.024;23.096;2022-08-03T03:10:50;1.20;;;1.10;;
12220;SDS011;6173;42.024;23.096;2022-08-03T03:13:18;2.93;;;1.43;;
12220;SDS011;6173;42.024;23.096;2022-08-03T03:15:48;2.60;;;1.70;;
12220;SDS011;6173;42.024;23.096;2022-08-03T03:18:17;1.30;;;1.20;;
12220;SDS011;6173;42.024;23.096;2022-08-03T03:20:46;1.70;;;1.10;;
12220;SDS011;6173;42.024;23.096;2022-08-03T03:23:14;2.77;;;1.53;;
12220;SDS011;6173;42.024;23.096;2022-08-03T03:25:43;2.43;;;1.03;;
12220;SDS011;6173;42.024;23.096;2022-08-03T03:28:11;2.67;;;1.30;;
12220;SDS011;6173;42.024;23.096;2022-08-03T03:30:37;3.67;;;1.40;;
12220;SDS011;6173;42.024;23.096;2022-08-03T03:33:04;2.37;;;1.57;;
12220;SDS011;6173;42.024;23.096;2022-08-03T03:35:31;3.50;;;1.30;;
12220;SDS011;6173;42.024;23.096;2022-08-03T03:37:59;3.63;;;1.20;;
12220;SDS011;6173;42.024;23.096;2022-08-03T03:40:26;1.90;;;1.30;;
12220;SDS011;6173;42.024;23.096;2022-08-03T03:42:54;1.77;;;1.40;;
12220;SDS011;6173;42.024;23.096;2022-08-03T03:45:21;7.13;;;1.77;;
12220;SDS011;6173;42.024;23.096;2022-08-03T03:47:49;3.20;;;1.33;;
12220;SDS011;6173;42.024;23.096;2022-08-03T03:50:16;1.77;;;1.20;;
12220;SDS011;6173;42.024;23.096;2022-08-03T03:52:44;1.80;;;1.13;;
12220;SDS011;6173;42.024;23.096;2022-08-03T03:55:14;1.40;;;1.23;;
12220;SDS011;6173;42.024;23.096;2022-08-03T03:57:41;2.30;;;1.50;;
12220;SDS011;6173;42.024;23.096;2022-08-03T04:00:10;1.60;;;1.50;;
12220;SDS011;6173;42.024;23.096;2022-08-03T04:02:38;2.90;;;1.20;;
12220;SDS011;6173;42.024;23.096;2022-08-03T04:05:05;1.30;;;1.20;;
12220;SDS011;6173;42.024;23.096;2022-08-03T04:07:53;4.00;;;1.43;;
12220;SDS011;6173;42.024;23.096;2022-08-03T04:10:41;2.93;;;1.53;;
12220;SDS011;6173;42.024;23.096;2022-08-03T04:13:26;1.67;;;1.50;;
12220;SDS011;6173;42.024;23.096;2022-08-03T04:16:00;4.00;;;1.70;;
12220;SDS011;6173;42.024;23.096;2022-08-03T04:18:28;1.50;;;1.40;;
12220;SDS011;6173;42.024;23.096;2022-08-03T04:20:58;5.43;;;1.23;;
12220;SDS011;6173;42.024;23.096;2022-08-03T04:23:29;2.83;;;1.47;;
12220;SDS011;6173;42.024;23.096;2022-08-03T04:25:58;3.03;;;1.50;;
12220;SDS011;6173;42.024;23.096;2022-08-03T04:28:27;2.43;;;1.20;;
12220;SDS011;6173;42.024;23.096;2022-08-03T04:30:56;3.70;;;1.50;;
12220;SDS011;6173;42.024;23.096;2022-08-03T04:33:25;1.40;;;1.30;;
12220;SDS011;6173;42.024;23.096;2022-08-03T04:35:54;3.60;;;1.30;;
12220;SDS011;6173;42.024;23.096;2022-08-03T04:38:24;2.90;;;1.33;;
12220;SDS011;6173;42.024;23.096;2022-08-03T04:40:53;5.47;;;1.67;;
12220;SDS011;6173;42.024;23.096;2022-08-03T04:43:21;2.57;;;1.60;;
12220;SDS011;6173;42.024;23.096;2022-08-03T04:45:50;4.80;;;1.33;;
12220;SDS011;6173;42.024;23.096;2022-08-03T04:48:18;2.77;;;1.47;;
12220;SDS011;6173;42.024;23.096;2022-08-03T04:50:47;2.57;;;1.70;;
12220;SDS011;6173;42.024;23.096;2022-08-03T04:53:14;2.07;;;1.53;;
12220;SDS011;6173;42.024;23.096;2022-08-03T04:55:42;2.97;;;1.50;;
12220;SDS011;6173;42.024;23.096;2022-08-03T04:58:09;4.13;;;1.60;;
12220;SDS011;6173;42.024;23.096;2022-08-03T05:00:36;5.83;;;1.80;;
12220;SDS011;6173;42.024;23.096;2022-08-03T05:03:03;10.00;;;2.20;;
12220;SDS011;6173;42.024;23.096;2022-08-03T05:05:30;5.40;;;1.93;;
12220;SDS011;6173;42.024;23.096;2022-08-03T05:07:58;4.40;;;2.30;;
12220;SDS011;6173;42.024;23.096;2022-08-03T05:10:25;13.33;;;2.20;;
12220;SDS011;6173;42.024;23.096;2022-08-03T05:12:52;8.03;;;2.13;;
12220;SDS011;6173;42.024;23.096;2022-08-03T05:15:18;5.77;;;2.13;;
12220;SDS011;6173;42.024;23.096;2022-08-03T05:17:45;5.70;;;2.37;;
12220;SDS011;6173;42.024;23.096;2022-08-03T05:20:13;7.73;;;2.27;;
12220;SDS011;6173;42.024;23.096;2022-08-03T05:22:40;4.87;;;2.30;;
12220;SDS011;6173;42.024;23.096;2022-08-03T05:25:08;3.73;;;2.30;;
12220;SDS011;6173;42.024;23.096;2022-08-03T05:27:35;6.90;;;2.20;;
12220;SDS011;6173;42.024;23.096;2022-08-03T05:30:02;8.43;;;2.30;;
12220;SDS011;6173;42.024;23.096;2022-08-03T05:32:30;7.53;;;3.10;;
12220;SDS011;6173;42.024;23.096;2022-08-03T05:34:57;3.33;;;2.10;;
12220;SDS011;6173;42.024;23.096;2022-08-03T05:37:24;4.97;;;2.37;;
12220;SDS011;6173;42.024;23.096;2022-08-03T05:39:50;3.87;;;1.87;;
12220;SDS011;6173;42.024;23.096;2022-08-03T05:42:18;2.07;;;1.87;;
12220;SDS011;6173;42.024;23.096;2022-08-03T05:44:45;5.20;;;2.00;;
12220;SDS011;6173;42.024;23.096;2022-08-03T05:47:12;3.13;;;1.80;;
12220;SDS011;6173;42.024;23.096;2022-08-03T05:49:39;3.93;;;1.97;;
12220;SDS011;6173;42.024;23.096;2022-08-03T05:52:06;3.67;;;2.10;;
12220;SDS011;6173;42.024;23.096;2022-08-03T05:54:32;6.87;;;2.30;;
12220;SDS011;6173;42.024;23.096;2022-08-03T05:56:59;3.17;;;1.93;;
12220;SDS011;6173;42.024;23.096;2022-08-03T05:59:27;4.47;;;1.80;;
12220;SDS011;6173;42.024;23.096;2022-08-03T06:01:54;6.80;;;2.40;;
12220;SDS011;6173;42.024;23.096;2022-08-03T06:04:21;2.33;;;2.13;;
12220;SDS011;6173;42.024;23.096;2022-08-03T06:06:48;2.23;;;1.90;;
12220;SDS011;6173;42.024;23.096;2022-08-03T06:09:14;4.60;;;1.97;;
12220;SDS011;6173;42.024;23.096;2022-08-03T06:11:41;4.53;;;2.10;;
12220;SDS011;6173;42.024;23.096;2022-08-03T06:14:08;4.73;;;2.10;;
12220;SDS011;6173;42.024;23.096;2022-08-03T06:16:36;2.70;;;2.17;;
12220;SDS011;6173;42.024;23.096;2022-08-03T06:19:03;5.60;;;2.40;;
12220;SDS011;6173;42.024;23.096;2022-08-03T06:21:30;3.73;;;2.53;;
12220;SDS011;6173;42.024;23.096;2022-08-03T06:23:57;9.33;;;2.37;;
12220;SDS011;6173;42.024;23.096;2022-08-03T06:26:24;10.13;;;2.70;;
12220;SDS011;6173;42.024;23.096;2022-08-03T06:28:53;5.37;;;2.93;;
12220;SDS011;6173;42.024;23.096;2022-08-03T06:31:20;6.70;;;2.33;;
12220;SDS011;6173;42.024;23.096;2022-08-03T06:33:51;7.73;;;2.37;;
12220;SDS011;6173;42.024;23.096;2022-08-03T06:36:18;9.40;;;2.53;;
12220;SDS011;6173;42.024;23.096;2022-08-03T06:38:44;3.43;;;1.97;;
12220;SDS011;6173;42.024;23.096;2022-08-03T06:41:11;4.77;;;2.10;;
12220;SDS011;6173;42.024;23.096;2022-08-03T06:43:38;8.13;;;2.67;;
12220;SDS011;6173;42.024;23.096;2022-08-03T06:46:06;8.80;;;2.47;;
12220;SDS011;6173;42.024;23.096;2022-08-03T06:48:33;9.03;;;2.27;;
12220;SDS011;6173;42.024;23.096;2022-08-03T06:51:01;6.00;;;2.50;;
12220;SDS011;6173;42.024;23.096;2022-08-03T06:53:28;5.87;;;2.33;;
12220;SDS011;6173;42.024;23.096;2022-08-03T06:55:57;7.17;;;2.37;;
12220;SDS011;6173;42.024;23.096;2022-08-03T06:58:24;10.90;;;2.70;;
12220;SDS011;6173;42.024;23.096;2022-08-03T07:00:51;7.37;;;2.00;;
12220;SDS011;6173;42.024;23.096;2022-08-03T07:03:18;5.27;;;2.53;;
12220;SDS011;6173;42.024;23.096;2022-08-03T07:05:45;6.73;;;2.20;;
12220;SDS011;6173;42.024;23.096;2022-08-03T07:25:46;8.40;;;2.37;;
12220;SDS011;6173;42.024;23.096;2022-08-03T07:28:14;4.83;;;2.57;;
12220;SDS011;6173;42.024;23.096;2022-08-03T07:30:41;10.73;;;3.00;;
12220;SDS011;6173;42.024;23.096;2022-08-03T07:33:08;5.83;;;2.80;;
12220;SDS011;6173;42.024;23.096;2022-08-03T07:35:35;6.47;;;3.10;;
12220;SDS011;6173;42.024;23.096;2022-08-03T07:38:01;4.93;;;3.03;;
12220;SDS011;6173;42.024;23.096;2022-08-03T07:40:28;11.90;;;3.07;;
12220;SDS011;6173;42.024;23.096;2022-08-03T07:42:56;16.83;;;3.53;;
12220;SDS011;6173;42.024;23.096;2022-08-03T07:45:23;11.47;;;3.57;;
12220;SDS011;6173;42.024;23.096;2022-08-03T07:47:50;7.13;;;3.10;;
12220;SDS011;6173;42.024;23.096;2022-08-03T07:50:17;9.20;;;2.73;;
12220;SDS011;6173;42.024;23.096;2022-08-03T07:52:44;3.30;;;2.33;;
12220;SDS011;6173;42.024;23.096;2022-08-03T07:55:14;6.90;;;2.50;;
12220;SDS011;6173;42.024;23.096;2022-08-03T07:57:41;7.90;;;2.77;;
12220;SDS011;6173;42.024;23.096;2022-08-03T08:00:13;7.50;;;2.33;;
12220;SDS011;6173;42.024;23.096;2022-08-03T08:02:41;8.30;;;2.73;;
12220;SDS011;6173;42.024;23.096;2022-08-03T08:21:47;5.60;;;2.50;;
12220;SDS011;6173;42.024;23.096;2022-08-03T08:24:13;8.33;;;2.03;;
12220;SDS011;6173;42.024;23.096;2022-08-03T08:26:40;7.00;;;2.27;;
12220;SDS011;6173;42.024;23.096;2022-08-03T08:29:07;3.47;;;2.10;;
12220;SDS011;6173;42.024;23.096;2022-08-03T08:31:34;4.50;;;2.10;;
12220;SDS011;6173;42.024;23.096;2022-08-03T08:34:01;9.47;;;2.20;;
12220;SDS011;6173;42.024;23.096;2022-08-03T08:36:30;14.60;;;3.40;;
12220;SDS011;6173;42.024;23.096;2022-08-03T08:38:58;4.87;;;2.30;;
12220;SDS011;6173;42.024;23.096;2022-08-03T08:41:26;6.90;;;2.40;;
12220;SDS011;6173;42.024;23.096;2022-08-03T08:43:53;4.77;;;2.17;;
12220;SDS011;6173;42.024;23.096;2022-08-03T08:46:20;3.07;;;1.87;;
12220;SDS011;6173;42.024;23.096;2022-08-03T08:48:47;8.10;;;2.10;;
12220;SDS011;6173;42.024;23.096;2022-08-03T08:51:15;5.57;;;2.23;;
12220;SDS011;6173;42.024;23.096;2022-08-03T08:53:45;8.97;;;2.50;;
12220;SDS011;6173;42.024;23.096;2022-08-03T08:56:18;6.57;;;2.30;;
12220;SDS011;6173;42.024;23.096;2022-08-03T08:58:50;13.60;;;2.83;;
12220;SDS011;6173;42.024;23.096;2022-08-03T09:01:18;6.67;;;2.10;;
12220;SDS011;6173;42.024;23.096;2022-08-03T09:03:46;2.73;;;1.80;;
12220;SDS011;6173;42.024;23.096;2022-08-03T09:06:14;4.60;;;2.30;;
12220;SDS011;6173;42.024;23.096;2022-08-03T09:08:41;3.63;;;2.10;;
12220;SDS011;6173;42.024;23.096;2022-08-03T09:11:08;2.90;;;1.83;;
12220;SDS011;6173;42.024;23.096;2022-08-03T09:13:36;4.03;;;1.70;;
12220;SDS011;6173;42.024;23.096;2022-08-03T09:16:10;5.97;;;2.63;;
12220;SDS011;6173;42.024;23.096;2022-08-03T09:18:38;5.27;;;1.77;;
12220;SDS011;6173;42.024;23.096;2022-08-03T09:21:12;6.17;;;1.83;;
12220;SDS011;6173;42.024;23.096;2022-08-03T09:23:44;6.63;;;1.87;;
12220;SDS011;6173;42.024;23.096;2022-08-03T09:26:12;2.30;;;1.77;;
12220;SDS011;6173;42.024;23.096;2022-08-03T09:28:47;3.50;;;1.70;;
12220;SDS011;6173;42.024;23.096;2022-08-03T09:31:28;2.50;;;1.90;;
12220;SDS011;6173;42.024;23.096;2022-08-03T09:33:56;4.73;;;1.90;;
12220;SDS011;6173;42.024;23.096;2022-08-03T09:36:35;4.07;;;1.80;;
12220;SDS011;6173;42.024;23.096;2022-08-03T09:39:03;1.93;;;1.60;;
12220;SDS011;6173;42.024;23.096;2022-08-03T09:41:32;4.27;;;1.50;;
12220;SDS011;6173;42.024;23.096;2022-08-03T09:44:00;2.20;;;1.53;;
12220;SDS011;6173;42.024;23.096;2022-08-03T09:46:27;2.33;;;1.47;;
12220;SDS011;6173;42.024;23.096;2022-08-03T09:51:38;2.30;;;1.40;;
12220;SDS011;6173;42.024;23.096;2022-08-03T09:54:05;2.30;;;1.40;;
12220;SDS011;6173;42.024;23.096;2022-08-03T09:56:39;4.03;;;1.20;;
12220;SDS011;6173;42.024;23.096;2022-08-03T09:59:08;1.70;;;1.30;;
12220;SDS011;6173;42.024;23.096;2022-08-03T10:01:35;3.80;;;1.50;;
12220;SDS011;6173;42.024;23.096;2022-08-03T10:04:05;5.60;;;1.33;;
12220;SDS011;6173;42.024;23.096;2022-08-03T10:06:38;1.40;;;1.30;;
12220;SDS011;6173;42.024;23.096;2022-08-03T10:09:05;3.47;;;1.50;;
12220;SDS011;6173;42.024;23.096;2022-08-03T10:11:33;2.20;;;1.57;;
12220;SDS011;6173;42.024;23.096;2022-08-03T10:14:01;1.77;;;1.20;;
12220;SDS011;6173;42.024;23.096;2022-08-03T10:16:33;3.90;;;1.83;;
12220;SDS011;6173;42.024;23.096;2022-08-03T10:19:02;1.20;;;1.10;;
12220;SDS011;6173;42.024;23.096;2022-08-03T10:21:32;2.03;;;1.40;;
12220;SDS011;6173;42.024;23.096;2022-08-03T10:24:04;4.40;;;1.60;;
12220;SDS011;6173;42.024;23.096;2022-08-03T10:26:33;2.27;;;1.83;;
12220;SDS011;6173;42.024;23.096;2022-08-03T10:29:02;2.33;;;1.80;;
12220;SDS011;6173;42.024;23.096;2022-08-03T10:31:34;4.67;;;1.43;;
12220;SDS011;6173;42.024;23.096;2022-08-03T10:34:05;3.83;;;1.33;;
12220;SDS011;6173;42.024;23.096;2022-08-03T10:36:37;3.53;;;1.67;;
12220;SDS011;6173;42.024;23.096;2022-08-03T10:39:05;1.70;;;1.50;;
12220;SDS011;6173;42.024;23.096;2022-08-03T10:41:34;1.50;;;1.40;;
12220;SDS011;6173;42.024;23.096;2022-08-03T10:44:05;3.93;;;1.60;;
12220;SDS011;6173;42.024;23.096;2022-08-03T10:46:38;9.77;;;2.27;;
12220;SDS011;6173;42.024;23.096;2022-08-03T10:49:07;2.20;;;1.60;;
12220;SDS011;6173;42.024;23.096;2022-08-03T10:51:37;3.07;;;1.93;;
12220;SDS011;6173;42.024;23.096;2022-08-03T10:54:04;3.00;;;1.80;;
12220;SDS011;6173;42.024;23.096;2022-08-03T10:56:37;1.70;;;1.60;;
12220;SDS011;6173;42.024;23.096;2022-08-03T11:05:33;7.20;;;2.00;;
12220;SDS011;6173;42.024;23.096;2022-08-03T11:10:48;4.57;;;2.10;;
12220;SDS011;6173;42.024;23.096;2022-08-03T11:13:16;9.60;;;2.10;;
12220;SDS011;6173;42.024;23.096;2022-08-03T11:15:45;3.77;;;1.60;;
12220;SDS011;6173;42.024;23.096;2022-08-03T11:18:15;2.20;;;1.93;;
12220;SDS011;6173;42.024;23.096;2022-08-03T11:20:43;3.47;;;2.03;;
12220;SDS011;6173;42.024;23.096;2022-08-03T11:23:14;3.10;;;2.27;;
12220;SDS011;6173;42.024;23.096;2022-08-03T11:28:38;6.33;;;2.00;;
12220;SDS011;6173;42.024;23.096;2022-08-03T11:34:13;4.03;;;1.80;;
12220;SDS011;6173;42.024;23.096;2022-08-03T11:39:48;6.83;;;2.17;;
12220;SDS011;6173;42.024;23.096;2022-08-03T11:45:06;1.83;;;1.73;;
12220;SDS011;6173;42.024;23.096;2022-08-03T11:47:35;2.43;;;1.70;;
12220;SDS011;6173;42.024;23.096;2022-08-03T11:50:06;2.73;;;1.70;;
12220;SDS011;6173;42.024;23.096;2022-08-03T11:52:34;3.43;;;1.80;;
12220;SDS011;6173;42.024;23.096;2022-08-03T11:55:12;5.00;;;3.17;;
12220;SDS011;6173;42.024;23.096;2022-08-03T11:57:41;1.93;;;1.67;;
12220;SDS011;6173;42.024;23.096;2022-08-03T12:00:22;4.03;;;2.13;;
12220;SDS011;6173;42.024;23.096;2022-08-03T12:03:01;3.77;;;2.20;;
12220;SDS011;6173;42.024;23.096;2022-08-03T12:05:41;6.63;;;1.77;;
12220;SDS011;6173;42.024;23.096;2022-08-03T12:08:11;2.27;;;2.00;;
12220;SDS011;6173;42.024;23.096;2022-08-03T12:10:39;3.80;;;1.93;;
12220;SDS011;6173;42.024;23.096;2022-08-03T12:13:06;2.30;;;2.00;;
12220;SDS011;6173;42.024;23.096;2022-08-03T12:15:34;5.73;;;1.97;;
12220;SDS011;6173;42.024;23.096;2022-08-03T12:18:03;4.57;;;2.70;;
12220;SDS011;6173;42.024;23.096;2022-08-03T12:20:38;8.13;;;2.63;;
12220;SDS011;6173;42.024;23.096;2022-08-03T12:23:07;2.53;;;2.20;;
12220;SDS011;6173;42.024;23.096;2022-08-03T12:25:35;5.73;;;2.30;;
12220;SDS011;6173;42.024;23.096;2022-08-03T12:28:11;2.43;;;2.10;;
12220;SDS011;6173;42.024;23.096;2022-08-03T12:30:40;2.20;;;2.00;;
12220;SDS011;6173;42.024;23.096;2022-08-03T12:33:12;3.40;;;2.30;;
12220;SDS011;6173;42.024;23.096;2022-08-03T12:35:44;7.60;;;2.20;;
12220;SDS011;6173;42.024;23.096;2022-08-03T12:38:17;6.80;;;2.33;;
12220;SDS011;6173;42.024;23.096;2022-08-03T12:40:45;7.30;;;2.40;;
12220;SDS011;6173;42.024;23.096;2022-08-03T12:43:21;8.10;;;2.20;;
12220;SDS011;6173;42.024;23.096;2022-08-03T12:45:48;2.00;;;1.80;;
12220;SDS011;6173;42.024;23.096;2022-08-03T12:48:17;8.97;;;2.37;;
12220;SDS011;6173;42.024;23.096;2022-08-03T12:50:44;3.80;;;2.00;;
12220;SDS011;6173;42.024;23.096;2022-08-03T12:53:13;3.13;;;2.07;;
12220;SDS011;6173;42.024;23.096;2022-08-03T12:56:00;2.30;;;1.83;;
12220;SDS011;6173;42.024;23.096;2022-08-03T12:58:28;3.07;;;2.20;;
12220;SDS011;6173;42.024;23.096;2022-08-03T13:00:57;4.63;;;1.97;;
12220;SDS011;6173;42.024;23.096;2022-08-03T13:03:24;2.03;;;1.83;;
12220;SDS011;6173;42.024;23.096;2022-08-03T13:05:51;5.67;;;1.73;;
12220;SDS011;6173;42.024;23.096;2022-08-03T13:08:20;2.20;;;1.60;;
12220;SDS011;6173;42.024;23.096;2022-08-03T13:10:48;2.10;;;1.90;;
12220;SDS011;6173;42.024;23.096;2022-08-03T13:13:15;5.27;;;1.80;;
12220;SDS011;6173;42.024;23.096;2022-08-03T13:15:44;2.33;;;1.40;;
12220;SDS011;6173;42.024;23.096;2022-08-03T13:18:11;2.53;;;1.30;;
12220;SDS011;6173;42.024;23.096;2022-08-03T13:20:38;3.13;;;1.40;;
12220;SDS011;6173;42.024;23.096;2022-08-03T13:23:04;2.10;;;1.40;;
12220;SDS011;6173;42.024;23.096;2022-08-03T13:25:33;3.22;;;1.38;;
12220;SDS011;6173;42.024;23.096;2022-08-03T13:27:59;1.88;;;1.10;;
12220;SDS011;6173;42.024;23.096;2022-08-03T13:30:28;1.38;;;1.20;;
12220;SDS011;6173;42.024;23.096;2022-08-03T13:32:55;1.50;;;1.00;;
12220;SDS011;6173;42.024;23.096;2022-08-03T13:35:24;2.08;;;1.00;;
12220;SDS011;6173;42.024;23.096;2022-08-03T13:37:51;4.93;;;1.30;;
12220;SDS011;6173;42.024;23.096;2022-08-03T13:40:18;2.70;;;1.27;;
12220;SDS011;6173;42.024;23.096;2022-08-03T13:42:46;1.05;;;0.90;;
12220;SDS011;6173;42.024;23.096;2022-08-03T13:45:13;1.23;;;0.82;;
12220;SDS011;6173;42.024;23.096;2022-08-03T13:47:39;2.40;;;1.10;;
12220;SDS011;6173;42.024;23.096;2022-08-03T13:50:06;0.98;;;0.88;;
12220;SDS011;6173;42.024;23.096;2022-08-03T13:52:34;1.35;;;0.80;;
12220;SDS011;6173;42.024;23.096;2022-08-03T13:55:03;2.38;;;1.00;;
12220;SDS011;6173;42.024;23.096;2022-08-03T13:57:31;1.73;;;0.90;;
12220;SDS011;6173;42.024;23.096;2022-08-03T14:00:00;2.35;;;0.80;;
12220;SDS011;6173;42.024;23.096;2022-08-03T14:02:26;3.92;;;0.98;;
12220;SDS011;6173;42.024;23.096;2022-08-03T14:04:53;2.38;;;0.90;;
12220;SDS011;6173;42.024;23.096;2022-08-03T14:07:20;2.43;;;1.10;;
12220;SDS011;6173;42.024;23.096;2022-08-03T14:09:47;2.73;;;1.03;;
12220;SDS011;6173;42.024;23.096;2022-08-03T14:12:14;0.97;;;0.83;;
12220;SDS011;6173;42.024;23.096;2022-08-03T14:14:40;1.00;;;0.90;;
12220;SDS011;6173;42.024;23.096;2022-08-03T14:17:08;2.00;;;1.00;;
12220;SDS011;6173;42.024;23.096;2022-08-03T14:19:35;4.50;;;1.10;;
12220;SDS011;6173;42.024;23.096;2022-08-03T14:22:02;3.38;;;1.10;;
12220;SDS011;6173;42.024;23.096;2022-08-03T14:24:29;1.35;;;1.00;;
12220;SDS011;6173;42.024;23.096;2022-08-03T14:26:55;2.45;;;1.10;;
12220;SDS011;6173;42.024;23.096;2022-08-03T14:29:22;3.28;;;1.00;;
12220;SDS011;6173;42.024;23.096;2022-08-03T14:31:49;1.90;;;1.35;;
12220;SDS011;6173;42.024;23.096;2022-08-03T14:34:17;0.82;;;0.82;;
12220;SDS011;6173;42.024;23.096;2022-08-03T14:36:44;1.42;;;0.90;;
12220;SDS011;6173;42.024;23.096;2022-08-03T14:39:11;0.90;;;0.80;;
12220;SDS011;6173;42.024;23.096;2022-08-03T14:41:38;1.10;;;1.00;;
12220;SDS011;6173;42.024;23.096;2022-08-03T14:44:05;1.05;;;0.90;;
12220;SDS011;6173;42.024;23.096;2022-08-03T14:46:32;1.85;;;1.20;;
12220;SDS011;6173;42.024;23.096;2022-08-03T14:48:58;2.30;;;0.90;;
12220;SDS011;6173;42.024;23.096;2022-08-03T14:51:27;4.20;;;0.80;;
12220;SDS011;6173;42.024;23.096;2022-08-03T14:53:54;1.48;;;1.00;;
12220;SDS011;6173;42.024;23.096;2022-08-03T14:56:21;1.17;;;0.93;;
12220;SDS011;6173;42.024;23.096;2022-08-03T14:58:47;2.47;;;0.90;;
12220;SDS011;6173;42.024;23.096;2022-08-03T15:01:14;2.00;;;0.80;;
12220;SDS011;6173;42.024;23.096;2022-08-03T15:03:41;1.02;;;0.80;;
12220;SDS011;6173;42.024;23.096;2022-08-03T15:06:08;1.42;;;0.80;;
12220;SDS011;6173;42.024;23.096;2022-08-03T15:08:36;2.28;;;1.20;;
12220;SDS011;6173;42.024;23.096;2022-08-03T15:11:02;4.47;;;0.90;;
12220;SDS011;6173;42.024;23.096;2022-08-03T15:13:29;3.10;;;0.98;;
12220;SDS011;6173;42.024;23.096;2022-08-03T15:15:56;0.90;;;0.70;;
12220;SDS011;6173;42.024;23.096;2022-08-03T15:18:23;1.13;;;0.80;;
12220;SDS011;6173;42.024;23.096;2022-08-03T15:20:49;3.10;;;0.80;;
12220;SDS011;6173;42.024;23.096;2022-08-03T15:23:16;1.02;;;0.90;;
12220;SDS011;6173;42.024;23.096;2022-08-03T15:25:45;1.30;;;0.60;;
12220;SDS011;6173;42.024;23.096;2022-08-03T15:28:12;1.95;;;0.77;;
12220;SDS011;6173;42.024;23.096;2022-08-03T15:30:39;1.65;;;0.88;;
12220;SDS011;6173;42.024;23.096;2022-08-03T15:33:06;0.80;;;0.80;;
12220;SDS011;6173;42.024;23.096;2022-08-03T15:35:32;1.33;;;1.08;;
12220;SDS011;6173;42.024;23.096;2022-08-03T15:37:59;1.77;;;1.17;;
12220;SDS011;6173;42.024;23.096;2022-08-03T15:40:26;1.70;;;1.60;;
12220;SDS011;6173;42.024;23.096;2022-08-03T15:42:54;2.42;;;2.22;;
12220;SDS011;6173;42.024;23.096;2022-08-03T15:45:21;2.92;;;2.00;;
12220;SDS011;6173;42.024;23.096;2022-08-03T15:47:48;2.20;;;2.00;;
12220;SDS011;6173;42.024;23.096;2022-08-03T15:50:15;2.40;;;2.20;;
12220;SDS011;6173;42.024;23.096;2022-08-03T15:52:41;2.37;;;2.20;;
12220;SDS011;6173;42.024;23.096;2022-08-03T15:55:08;2.40;;;2.10;;